Timeline UpdatesTrip UpdatesNews PostsPvt PostsTravel TipsAdmin PostsConv PostsFollowed PostsChat RequestsBlog PostsPNR Posts

Disclaimer
Search
 
 
Sat Aug 2, 2014 12:06:10 ISTHomeTrainsΣChainsAtlasPNRForumGalleryNewsFAQTripsMembersLoginFeedback
No Recent News for this Train
Other Trains in the News **new
Latest...
.
Sat Feb 22, 2014 (09:04PM)
⇐ Return Journey: Train# 57305

57306/Guntur Kacheguda Passenger

Jul 03 2013 (11:33AM)
Change Departure Station:
Change Arrival Station:
Post a Train Travel TipPost a Train Travel Tip **new
Post a Comment/Question/Picture/VideoPost a Comment/Question/Picture/Video
Pantry/Catering
✕ NO Pantry Car
✕ NO Catering
Loco/Rake Reversals
DHNE/Dhone Junction (3);
RSA - Rake Sharing
57307 (KCG - MED Passenger).
Rake/Coach Composition
ENG-SLR-GEN-GEN-GEN-GEN-GEN-S2-S1-GEN-GEN-GEN-GEN-GEN-GEN-SLR, Entry# 721867, Author: Raghavender Daramoni.
Loco
MLY WDM-3A/WDG-3A.
News    PNR    Forum    Time-Table    Availability    Fare Chart    Map    Arr/Dep History    Trips    Gallery    ΣChains    X/O    Timeline    
Travel Time: 14h 12m    -2 halts    Distance: 553 km    Avg Speed: 38 km/hr
Type: Passenger
Zone: SCR/South Central
Departs @ 17:30 (Avg 3m late)
Platform# 1
SMTWTFS
Guntur Junction/GNT 
Arrives @ 07:42 +1 night
Platform# ???
SMTWTFS
Ranga Reddy Guda/RRGA 

-2 halts. 69 intermediate Stations between Guntur Junction and Ranga Reddy Guda

Show ALL intermediate Stations  

#CodeStation NameX/OArrivesAvgDepartsAvgHaltPFDay#KmSpeedElevZoneAddress
1GNTGuntur Junction (7)  -17:30+3110.02737mSCRGuntur, Andhra Pradesh
2NLPDNallapadu Junction (3)  17:41+917:42+111m--14.94346mSCRPhone Number : 0863-2119153, Andhra Pradesh
3PRCAPerecherla (1)  17:51+1217:52+131m1111.36475mSCRPerecherlaPRCA Station Phone Number : 0863-2290580, Andhra Pradesh
4PPMPhirangipuram  18:01+1618:02+161m--120.96162mSCRPhirangipuram, Andhra Pradesh
5NDPUNudurupadu  18:09+1818:10+181m--128.19349mSCRCoastal Andhra Region, Andhra Pradesh
6STURSatulur  18:14+2318:15+231m--134.24359mSCRGuntur, Andhra Pradesh
7NRTNarasaraopet (3)X  18:30+2118:32+222m--145.06774mSCRNarsaraopet ph.no 08647-223131, Andhra Pradesh
8MUKMunumaka  18:39+2518:40+271m--152.85769mSCR08647-219555, Andhra Pradesh
9SABSantamagulur  18:49+2718:50+281m--161.34175mSCRGuntur, Andhra Pradesh
10VLCAVellalacheruvu Halt  18:55-18:56-1m--164.72387mSCRVellalacheruvu, Andhra Pradesh
11SYMSavalyapuram  19:17+1619:18+181m--172.84587mSCRGuntur Phone Number : 08646-259211, Andhra Pradesh
12VKNVinukonda (1)  19:31+1519:32+181m1182.57595mSCRVinukonda, Andhra Pradesh
13CEMCheekategalapalem  19:39+2019:40+221m--191.24478mSCRVinukonda, Andhra Pradesh
14GKMGundlakamma (1)  19:46+2519:47+261m1195.64891mSCRVinukonda, Andhra Pradesh
15KCDKurichedu (1)  20:01+2420:02+241m11106.958121mSCRPrakasam dt, Andhra Pradesh
16POOPotlapadu (1)  20:09+2720:10+271m11113.737147mSCRAndhra Pradesh, Andhra Pradesh
17DKDDonakonda (3)  20:20+2620:22+272m--1119.947154mSCRPhone:08408-272037, Andhra Pradesh
18GJJGajjelakonda (1)  20:36+2620:37+261m11130.857153mSCRPrakasam. Telephone 08499-247233, Andhra Pradesh
19MRKMarkapur Road (2)  20:51+2520:52+271m11144.139156mSCRmarkapur road ph.no 08596-222028, Andhra Pradesh
20TLUTarlupadu (1)  21:09+2621:10+261m11155.164164mSCRPhone Number : 08499-246232, Andhra Pradesh
21CBMCumbum (1)  21:24+2621:25+301m11170.045199mSCRprakasham dist, Andhra Pradesh
22JBKJaggambotla KrishnapuramX  21:34+3121:35+341m--1176.850200mSCRPhone;08406-200100, Andhra Pradesh
23SDVSomidevipalle  21:49+3221:50+351m--1188.553225mSCRPhone Number : 9441901913, Andhra Pradesh
24GMAGudimetta  21:55-21:56-1m--1192.945231mSCRBestavaripeta, Andhra Pradesh
25GIDGiddalur (2)  22:10+3422:12+352m--1203.442269mSCRGiddalur ph.no 08405-242003, Andhra Pradesh
26KSTEKrishnamsetty PalleX  22:19-22:20-1m--1208.344278mSCRPrakasam, Andhra Pradesh
27DMTDiguvametta  22:29+4022:30+511m--1214.935315mSCRRayalaseema Region, Andhra Pradesh
28CMZChelama (1)X  22:59+4023:00+421m11231.634314mSCRKurnool, Andhra Pradesh
29GZLGazulapalli  23:19+3323:20+341m--1242.419238mSCRKurnool, Andhra Pradesh
30NDLNandyal (3)  00:05+1200:10+185m12256.789216mSCRPhone Number : 9247019958, Andhra Pradesh
31PNMPanyam (2)  00:20+3800:21+411m--2271.656227mSCRKurnool Dist., Andhra Pradesh
32BEYBugganipalli Cement Nagar  00:41+4500:42+451m--2290.457386mSCRKurnool, Andhra Pradesh
33BMHBetamcherla (2)  00:49+4800:50+491m--2297.060425mSCRBetamcherla, Andhra Pradesh
34RGMRangapuram  01:01+5101:02+541m--2308.059440mSCRKurnool, Andhra Pradesh
35MLKMalkapuram  01:14+1:2501:15+1:361m--2319.712459mSCRKurnool, Andhra Pradesh
36DHNEDhone Junction (3)XO02:20+1:3102:50+1:0330m--2332.864425mSCR518222, Andhra Pradesh
37VDIVeldurti (2)  03:09+1:0803:10+1:141m--2353.046341mSCRVeldurthi, Andhra Pradesh
38KRNTKurnool City (3)  03:55+5803:57+1:072m--2387.259293mSCRKurnool Ph:08518-220110, Andhra Pradesh
39SBBJSri Bala Brahmeswara Jogulamba Halt (1)  04:07-04:08-1m12397.056312mSCRMahabubnagar Dist., Telangana
40GWDGadwal Junction (2)X  04:57+1:1104:58+1:151m--2442.562327mSCRMahbubnagar Dist., Telangana
41WPRWanaparti Road (2)  05:19+1:2105:20+1:221m--2464.185330mSCRMahbubnagar Dist., Telangana
42MHBTMahbubnagar Town Halt (1)XO  05:56-05:57-1m12515.03500mSCRMahbubnagar, Telangana
43MBNRMahbubnagar (3)  06:50+4507:05+3515m--2517.575500mSCRMahbubnagar, Telangana
44JCLJadcherla (3)X  07:19+4307:20+441m--2535.150545mSCR509301, Telangana
45GLYGollapally (1)  07:29+3807:30+401m12542.748556mSCR, Telangana
46BABRBalanagar (3)  07:49+3507:50+371m12558.039566mSCR, Telangana
47SHNRShadnagar (3)  08:11+3208:12+321m--2571.575648mSCRMahabubnagar Dist., Telangana
48TMXTimmapur (2)X  08:24+3008:25+311m--2586.582582mSCRMahabubnagar Dist., Telangana
49URUmdanagar (3)  08:37+2608:38+261m--2602.956581mSCRHyderabad, Telangana
50BDVLBudvel (2)  08:45+2808:46+301m--2609.414556mSCRHyderabad, Telangana
51FMFalaknuma (3)  09:14+2109:15+211m--2616.137523mSCRHyderabad, Telangana
52HPGHuppuguda (2)  09:17-09:18-1m--2617.349520mSCRHyderabad, Telangana
53YKAYakutpura (2)  09:21-09:22-1m--2619.746505mSCRHyderabad, Telangana
54DQRDabirpura (2)  09:23-09:24-1m--2620.538500mSCRHyderabad, Telangana
55MXTMalakpet (2)  09:26-09:27-1m12621.83494mSCRHyderabad, Telangana
56KCGHyderabad Kacheguda (5)  10:00+13-12623.4-494mSCRHyderabad - 500027, Telangana
Scroll to Top
Scroll to Bottom